Time;durP1;ratioP1;P1;durP2;ratioP2;P2;SDS_P1;SDS_P2;PMS_P1;PMS_P2;Temp;Humidity;BMP_temperature;BMP_pressure;BME280_temperature;BME280_humidity;BME280_pressure;Samples;Min_cycle;Max_cycle;Signal;HPM_P1;HPM_P2
2023/05/05 00:01:10;;;;;;;6.95;6.35;;;11.50;99.90;;;12.34;81.48;97962.41;5114506;28;20223;-62
2023/05/05 00:03:43;;;;;;;7.32;6.80;;;11.50;99.90;;;12.36;81.74;97962.47;5122009;28;20217;-62
2023/05/05 00:06:16;;;;;;;6.70;6.20;;;11.50;99.90;;;12.43;82.06;97962.00;5119283;28;20215;-62
2023/05/05 00:08:49;;;;;;;6.90;6.40;;;11.50;99.90;;;12.42;81.96;97960.25;5120460;28;20250;-63
2023/05/05 00:11:22;;;;;;;7.63;6.93;;;11.50;99.90;;;12.39;82.91;97957.53;5118806;29;20213;-62
2023/05/05 00:13:57;;;;;;;7.43;6.70;;;11.50;99.90;;;12.38;82.71;97956.63;5119877;28;20204;-63
2023/05/05 00:16:30;;;;;;;7.63;6.88;;;11.50;99.90;;;12.36;83.41;97954.78;5127391;28;20581;-62
2023/05/05 00:19:03;;;;;;;8.20;7.10;;;11.40;99.90;;;12.28;83.71;97956.09;5118993;28;20221;-62
2023/05/05 00:21:36;;;;;;;6.97;6.38;;;11.40;99.90;;;12.26;83.77;97952.56;5120945;28;20314;-63
2023/05/05 00:24:09;;;;;;;7.50;6.85;;;11.30;99.90;;;12.28;84.16;97950.97;5112757;28;20205;-62
2023/05/05 00:26:42;;;;;;;7.35;6.65;;;11.40;99.90;;;12.28;83.48;97956.97;5119218;28;20211;-64
2023/05/05 00:29:16;;;;;;;7.32;6.80;;;11.40;99.90;;;12.26;84.19;97952.56;5107773;28;20244;-63
2023/05/05 00:31:51;;;;;;;6.50;6.00;;;11.40;99.90;;;12.21;83.94;97964.25;5118060;29;20207;-63
2023/05/05 00:34:24;;;;;;;7.55;6.93;;;11.30;99.90;;;12.17;84.80;97964.09;5113553;29;20270;-63
2023/05/05 00:36:57;;;;;;;6.88;6.25;;;11.30;99.90;;;12.15;84.63;97960.53;5119334;28;20317;-62
2023/05/05 00:39:32;;;;;;;7.35;6.70;;;11.20;99.90;;;12.11;84.91;97966.31;5113961;29;20225;-62
2023/05/05 00:42:05;;;;;;;8.13;6.85;;;11.20;99.90;;;12.11;84.74;97963.75;5117516;28;20204;-62
2023/05/05 00:44:41;;;;;;;7.38;6.80;;;11.20;99.90;;;12.09;84.87;97967.03;5114811;28;20232;-62
2023/05/05 00:47:15;;;;;;;7.10;6.50;;;11.10;99.90;;;12.05;85.31;97966.00;5110947;28;20201;-63
2023/05/05 00:49:48;;;;;;;7.00;6.50;;;11.10;99.90;;;12.08;85.25;97968.72;5112608;29;20225;-63
2023/05/05 00:52:21;;;;;;;7.32;6.72;;;11.10;99.90;;;12.06;85.04;97960.06;5111001;28;20671;-62
2023/05/05 00:54:55;;;;;;;7.50;6.80;;;11.10;99.90;;;12.01;85.53;97961.50;5113285;28;20210;-62
2023/05/05 00:57:28;;;;;;;7.25;6.65;;;11.10;99.90;;;12.05;85.55;97960.88;5109543;29;20231;-62
2023/05/05 01:00:04;;;;;;;7.70;7.03;;;11.10;99.90;;;12.06;85.24;97960.06;5118928;29;20719;-62
2023/05/05 01:02:40;;;;;;;6.97;6.28;;;11.10;99.90;;;12.06;86.09;97960.06;5118712;28;20680;-62
2023/05/05 01:05:14;;;;;;;6.68;6.18;;;11.10;99.90;;;12.01;86.03;97961.50;5112079;28;20201;-62
2023/05/05 01:08:03;;;;;;;7.72;7.05;;;11.10;99.90;;;11.91;85.87;97961.84;5114349;28;20211;-62
2023/05/05 01:10:43;;;;;;;7.15;6.55;;;11.10;99.90;;;11.98;85.85;97969.03;5118275;28;20216;-64
2023/05/05 01:13:32;;;;;;;7.30;6.72;;;11.10;99.90;;;11.96;86.12;97968.09;5118847;28;20215;-63
2023/05/05 01:16:14;;;;;;;6.97;6.38;;;11.10;99.90;;;12.02;86.31;97970.06;5116357;28;20581;-63
2023/05/05 01:18:54;;;;;;;6.72;6.13;;;11.10;99.90;;;12.09;85.90;97965.34;5113161;28;20280;-62
2023/05/05 01:21:33;;;;;;;7.35;6.65;;;11.20;99.90;;;12.10;86.22;97961.09;5113950;29;20200;-64
2023/05/05 01:24:39;;;;;;;7.15;6.57;;;11.20;99.90;;;12.14;86.26;97966.47;5110717;28;20204;-64
2023/05/05 01:27:34;;;;;;;7.53;6.68;;;11.20;99.90;;;12.11;86.01;97963.75;5112316;28;20669;-63
2023/05/05 01:30:22;;;;;;;7.50;6.82;;;11.20;99.90;;;12.04;85.54;97966.78;5110716;29;20227;-63
2023/05/05 01:33:02;;;;;;;7.07;6.47;;;11.10;99.90;;;11.98;85.56;97958.78;5119326;28;20208;-63
2023/05/05 01:35:41;;;;;;;7.40;6.80;;;11.10;99.90;;;12.02;85.66;97958.16;5112432;28;20211;-62
2023/05/05 01:38:17;;;;;;;6.80;6.30;;;11.10;99.90;;;12.06;86.07;97967.75;5118549;28;20213;-62
2023/05/05 01:40:59;;;;;;;7.30;6.70;;;11.20;99.90;;;12.09;86.53;97965.34;5112124;28;20209;-63
2023/05/05 01:43:35;;;;;;;7.05;6.45;;;11.20;99.90;;;12.12;86.69;97974.88;5109586;28;20204;-62
2023/05/05 01:46:09;;;;;;;7.82;7.13;;;11.20;99.90;;;12.16;86.72;97963.97;5115631;28;20542;-63
2023/05/05 01:48:45;;;;;;;6.80;6.30;;;11.30;99.90;;;12.17;85.72;97969.22;5119648;28;20251;-63
2023/05/05 01:51:21;;;;;;;7.20;6.60;;;11.30;99.90;;;12.22;86.05;97968.56;5117441;28;20683;-63
2023/05/05 01:53:59;;;;;;;7.40;6.70;;;11.40;99.90;;;12.26;86.07;97960.25;5118210;29;20209;-63
2023/05/05 01:56:33;;;;;;;7.88;6.50;;;11.40;99.90;;;12.24;86.42;97970.41;5119387;28;20204;-63
2023/05/05 01:59:06;;;;;;;7.57;6.55;;;11.40;99.90;;;12.26;86.56;97962.81;5115041;28;20688;-63
2023/05/05 02:01:43;;;;;;;7.10;6.55;;;11.40;99.90;;;12.22;86.11;97964.34;5111571;28;20223;-62
2023/05/05 02:04:21;;;;;;;6.82;6.30;;;11.30;99.90;;;12.26;86.30;97965.38;5119299;28;20204;-63
2023/05/05 02:06:56;;;;;;;7.20;6.22;;;11.30;99.90;;;12.26;86.87;97962.81;5118629;28;20719;-63
2023/05/05 02:09:29;;;;;;;7.30;6.70;;;11.40;99.90;;;12.22;87.19;97963.44;5114923;28;20608;-63
2023/05/05 02:12:06;;;;;;;7.10;6.32;;;11.30;99.90;;;12.19;86.83;97956.50;5107806;28;20228;-63
2023/05/05 02:14:40;;;;;;;6.75;6.25;;;11.30;99.90;;;12.08;86.75;97961.03;5102323;28;20205;-62
2023/05/05 02:17:15;;;;;;;7.13;6.53;;;11.20;99.90;;;12.01;86.66;97964.06;5110599;28;20304;-63
2023/05/05 02:19:52;;;;;;;6.85;6.25;;;11.10;99.90;;;12.01;85.97;97971.75;5117187;28;20242;-63
2023/05/05 02:22:25;;;;;;;7.72;6.75;;;11.10;99.90;;;11.91;85.72;97961.84;5113807;28;20205;-61
2023/05/05 02:24:58;;;;;;;7.13;6.63;;;11.00;99.90;;;11.88;85.92;97962.53;5118496;28;20196;-62
2023/05/05 02:27:34;;;;;;;7.20;6.60;;;11.00;99.90;;;11.85;85.87;97962.38;5114390;29;20209;-63
2023/05/05 02:30:11;;;;;;;7.60;7.00;;;11.00;99.90;;;11.83;86.78;97953.69;5113805;28;20247;-64
2023/05/05 02:33:00;;;;;;;7.43;6.45;;;10.90;99.90;;;11.56;87.98;97953.09;5114380;28;20204;-64
2023/05/05 02:35:38;;;;;;;7.07;6.45;;;10.70;99.90;;;11.48;88.44;97956.91;5118582;28;20610;-64
2023/05/05 02:38:16;;;;;;;7.45;6.75;;;10.70;99.90;;;11.44;88.73;97960.97;5115102;28;20217;-64
2023/05/05 02:40:51;;;;;;;8.35;7.45;;;10.60;99.90;;;11.53;88.20;97969.94;5118495;28;20323;-64
2023/05/05 02:43:25;;;;;;;7.38;6.78;;;10.70;99.90;;;11.55;88.30;97966.69;5111038;28;20751;-62
2023/05/05 02:45:58;;;;;;;7.05;6.50;;;10.70;99.90;;;11.58;88.94;97954.03;5111336;28;20208;-62
2023/05/05 02:48:31;;;;;;;6.90;6.40;;;10.70;99.90;;;11.58;89.03;97961.72;5116827;28;20224;-63
2023/05/05 02:51:06;;;;;;;8.60;7.80;;;10.70;99.90;;;11.59;88.93;97960.94;5114925;28;20205;-63
2023/05/05 02:53:40;;;;;;;8.55;7.85;;;10.70;99.90;;;11.52;89.35;97961.38;5113547;28;20208;-63
2023/05/05 02:56:25;;;;;;;7.82;6.78;;;10.70;99.90;;;11.58;89.50;97958.28;5118666;28;20207;-63
2023/05/05 02:59:08;;;;;;;7.95;6.97;;;10.70;99.90;;;11.57;89.14;97962.53;5118358;28;20228;-62
2023/05/05 03:01:59;;;;;;;7.68;7.07;;;10.70;99.90;;;11.54;89.90;97962.38;5110527;28;20690;-62
2023/05/05 03:04:39;;;;;;;7.50;6.93;;;10.70;99.90;;;11.51;90.34;97969.88;5117566;28;20211;-64
2023/05/05 03:07:22;;;;;;;7.85;7.22;;;10.70;99.90;;;11.52;89.48;97974.19;5117335;28;20201;-63
2023/05/05 03:10:04;;;;;;;8.07;7.28;;;10.70;99.90;;;11.59;90.19;97973.75;5117973;28;20228;-64
2023/05/05 03:12:45;;;;;;;8.65;7.95;;;10.70;99.90;;;11.60;90.53;97975.50;5116461;28;20545;-62
2023/05/05 03:15:20;;;;;;;8.10;7.40;;;10.70;99.90;;;11.61;90.63;97976.38;5115445;28;20212;-63
2023/05/05 03:17:54;;;;;;;7.78;7.18;;;10.70;99.90;;;11.63;89.43;97975.66;5112213;28;20200;-64
2023/05/05 03:20:28;;;;;;;7.95;7.32;;;10.70;99.90;;;11.54;90.56;97972.59;5117359;28;20221;-63
2023/05/05 03:23:03;;;;;;;7.20;6.70;;;10.60;99.90;;;11.52;90.27;97966.50;5112203;28;20624;-63
2023/05/05 03:25:44;;;;;;;7.55;6.85;;;10.60;99.90;;;11.47;91.02;97970.50;5114852;28;20583;-64
2023/05/05 03:28:18;;;;;;;8.05;7.45;;;10.60;99.90;;;11.46;90.50;97969.63;5117265;28;20535;-62
2023/05/05 03:30:51;;;;;;;7.80;7.13;;;10.50;99.90;;;11.43;90.90;97973.69;5117132;28;20197;-62
2023/05/05 03:33:24;;;;;;;7.97;7.30;;;10.50;99.90;;;11.43;91.48;97978.81;5116954;29;20246;-64
2023/05/05 03:35:56;;;;;;;7.75;6.97;;;10.50;99.90;;;11.42;90.89;97977.06;5113658;28;20228;-63
2023/05/05 03:38:31;;;;;;;7.65;6.95;;;10.50;99.90;;;11.38;92.05;97982.78;5109598;28;20585;-63
2023/05/05 03:41:04;;;;;;;8.52;7.78;;;10.40;99.90;;;11.38;91.89;97982.78;5118037;29;20208;-62
2023/05/05 03:43:38;;;;;;;7.90;7.20;;;10.40;99.90;;;11.30;91.56;97992.56;5118450;29;20653;-61
2023/05/05 03:46:11;;;;;;;7.90;7.20;;;10.30;99.90;;;11.24;91.84;97993.13;5117560;28;20239;-63
2023/05/05 03:48:44;;;;;;;7.43;6.72;;;10.30;99.90;;;11.21;91.20;97992.94;5115844;28;20231;-63
2023/05/05 03:51:17;;;;;;;7.60;7.00;;;10.30;99.90;;;11.22;91.16;97994.72;5114676;28;20219;-63
2023/05/05 03:53:51;;;;;;;7.80;6.60;;;10.30;99.90;;;11.22;91.33;97997.28;5108576;28;20210;-63
2023/05/05 03:56:24;;;;;;;7.53;6.93;;;10.30;99.90;;;11.26;92.40;98006.88;5117562;29;20208;-63
2023/05/05 03:58:57;;;;;;;7.15;6.65;;;10.40;99.90;;;11.25;92.47;98005.13;5110744;29;20230;-63
2023/05/05 04:01:30;;;;;;;7.78;7.00;;;10.40;99.90;;;11.29;91.69;98008.75;5114753;28;20220;-61
2023/05/05 04:04:04;;;;;;;7.30;6.68;;;10.40;99.90;;;11.37;91.61;97993.81;5105359;28;20645;-63
2023/05/05 04:06:36;;;;;;;7.88;7.13;;;10.40;99.90;;;11.32;92.00;98005.47;5109219;28;20716;-62
2023/05/05 04:09:12;;;;;;;7.13;6.43;;;10.40;99.90;;;11.28;91.75;98005.31;5119283;28;20223;-63
2023/05/05 04:11:45;;;;;;;8.38;7.57;;;10.40;99.90;;;11.35;92.02;98000.53;5116913;28;20212;-62
2023/05/05 04:14:18;;;;;;;7.80;7.15;;;10.40;99.90;;;11.37;92.16;97994.69;5117948;28;20580;-63
2023/05/05 04:16:52;;;;;;;7.60;7.00;;;10.40;99.90;;;11.40;91.46;98001.66;5106982;29;20213;-63
2023/05/05 04:19:25;;;;;;;7.57;6.88;;;10.40;99.90;;;11.36;91.64;97995.50;5115310;28;20244;-64
2023/05/05 04:21:58;;;;;;;7.28;6.68;;;10.40;99.90;;;11.29;91.46;98001.06;5109200;28;20209;-63
2023/05/05 04:24:32;;;;;;;7.95;7.25;;;10.40;99.90;;;11.35;91.28;98001.41;5113361;28;20209;-63
2023/05/05 04:27:05;;;;;;;8.48;7.68;;;10.30;99.90;;;11.30;91.98;98005.38;5112720;28;20219;-63
2023/05/05 04:29:38;;;;;;;8.00;7.20;;;10.30;99.90;;;11.28;92.81;98005.31;5107651;28;20221;-64
2023/05/05 04:32:12;;;;;;;7.82;7.15;;;10.40;99.90;;;11.38;92.98;98006.69;5108618;28;20594;-64
2023/05/05 04:34:45;;;;;;;7.97;7.38;;;10.50;99.90;;;11.46;92.92;98010.56;5113384;28;20209;-63
2023/05/05 04:37:18;;;;;;;7.88;7.20;;;10.50;99.90;;;11.49;92.36;98007.31;5110530;28;20209;-63
2023/05/05 04:39:52;;;;;;;8.25;7.45;;;10.60;99.90;;;11.56;92.46;98011.97;5112125;28;20229;-63
2023/05/05 04:42:25;;;;;;;7.38;6.70;;;10.60;99.90;;;11.61;91.95;98007.97;5112609;28;20303;-62
2023/05/05 04:44:58;;;;;;;8.98;8.15;;;10.60;99.90;;;11.65;91.37;98012.47;5112984;28;20205;-63
2023/05/05 04:47:31;;;;;;;8.40;7.68;;;10.60;99.90;;;11.60;91.55;98013.03;5111208;28;20213;-61
2023/05/05 04:50:05;;;;;;;8.27;7.50;;;10.60;99.90;;;11.52;91.83;98015.16;5111722;28;20218;-63
2023/05/05 04:52:39;;;;;;;9.02;8.32;;;10.60;99.90;;;11.45;91.96;98025.84;5112579;28;20246;-63
2023/05/05 04:55:14;;;;;;;9.27;8.48;;;10.50;99.90;;;11.53;91.54;98014.34;5108790;29;20212;-63
2023/05/05 04:57:47;;;;;;;8.50;7.70;;;10.50;99.90;;;11.61;91.61;98025.00;5111372;28;20660;-63
2023/05/05 05:00:20;;;;;;;8.80;8.10;;;10.70;99.90;;;11.70;91.21;98023.88;5115643;28;20236;-62
2023/05/05 05:02:53;;;;;;;8.77;7.97;;;10.80;99.90;;;11.82;90.12;98020.22;5113755;28;20587;-63
2023/05/05 05:05:26;;;;;;;8.50;7.75;;;10.80;99.90;;;11.80;90.39;98017.56;5114653;28;20212;-62
2023/05/05 05:07:59;;;;;;;8.38;7.68;;;10.90;99.90;;;11.91;90.04;98024.19;5111564;29;20284;-63
2023/05/05 05:10:33;;;;;;;8.20;7.57;;;10.90;99.90;;;12.02;90.48;98024.78;5113774;28;20240;-63
2023/05/05 05:13:06;;;;;;;8.10;7.40;;;11.10;99.90;;;12.14;90.52;98024.53;5109022;28;20235;-63
2023/05/05 05:15:39;;;;;;;7.88;7.28;;;11.20;99.90;;;12.37;89.83;98024.06;5111464;28;20205;-63
2023/05/05 05:18:12;;;;;;;8.18;7.55;;;11.50;99.90;;;12.88;87.81;98023.22;5115222;28;20469;-64
2023/05/05 05:20:45;;;;;;;8.90;8.10;;;12.10;99.90;;;13.33;85.28;98027.22;5110026;28;20235;-64
2023/05/05 05:23:18;;;;;;;8.40;7.60;;;12.50;99.90;;;13.74;83.37;98031.81;5119617;28;20292;-63
2023/05/05 05:25:53;;;;;;;7.78;7.18;;;12.80;99.90;;;14.02;81.38;98034.75;5109394;28;20205;-64
2023/05/05 05:28:26;;;;;;;8.43;7.63;;;12.90;99.90;;;14.09;79.38;98036.81;5112598;28;20228;-64
2023/05/05 05:30:59;;;;;;;8.05;7.30;;;13.00;99.90;;;14.22;79.76;98039.13;5108432;28;20205;-64
2023/05/05 05:33:31;;;;;;;7.47;6.80;;;13.20;99.90;;;14.52;78.78;98033.66;5112703;28;20205;-63
2023/05/05 05:36:05;;;;;;;7.47;6.75;;;13.50;99.90;;;15.00;77.31;98026.31;5105941;29;20690;-64
2023/05/05 05:38:38;;;;;;;8.05;7.25;;;13.90;99.90;;;15.47;74.87;98032.53;5107219;28;20225;-63
2023/05/05 05:41:13;;;;;;;7.80;7.13;;;14.30;99.90;;;15.98;72.84;98032.88;5110877;28;20221;-64
2023/05/05 05:43:46;;;;;;;7.40;6.80;;;14.90;99.90;;;16.43;70.88;98033.72;5114542;28;20667;-64
2023/05/05 05:46:19;;;;;;;7.50;6.80;;;15.10;99.90;;;16.81;68.92;98029.09;5108998;28;20216;-64
2023/05/05 05:48:52;;;;;;;6.95;6.45;;;15.40;99.90;;;17.15;66.77;98034.56;5113101;28;20711;-63
2023/05/05 05:51:26;;;;;;;7.25;6.68;;;15.60;99.90;;;17.28;64.73;98029.84;5110731;28;20209;-64
2023/05/05 05:53:59;;;;;;;9.32;7.50;;;15.60;99.90;;;16.91;65.33;98038.03;5113676;29;20212;-64
2023/05/05 05:56:34;;;;;;;8.02;7.22;;;15.20;99.90;;;16.42;67.37;98036.22;5113100;28;20308;-64
2023/05/05 05:59:08;;;;;;;8.73;8.05;;;14.90;99.90;;;16.07;68.86;98033.22;5119796;28;20224;-62
2023/05/05 06:01:41;;;;;;;9.35;8.55;;;14.60;99.90;;;16.03;69.91;98044.25;5107981;28;20631;-64
2023/05/05 06:04:14;;;;;;;9.15;8.07;;;14.40;99.90;;;16.45;69.19;98049.25;5112451;28;20653;-63
2023/05/05 06:06:47;;;;;;;7.90;7.20;;;14.80;99.90;;;16.72;67.63;98045.94;5106150;28;20209;-66
2023/05/05 06:09:20;;;;;;;7.57;6.88;;;15.00;99.90;;;16.93;67.37;98044.13;5105826;28;20225;-63
2023/05/05 06:11:55;;;;;;;7.47;6.88;;;15.30;99.90;;;17.53;67.24;98040.97;5106403;28;20209;-64
2023/05/05 06:14:28;;;;;;;8.07;7.32;;;15.80;99.90;;;18.17;64.77;98042.13;5111145;28;20208;-64
2023/05/05 06:17:01;;;;;;;7.72;7.03;;;16.30;99.90;;;18.59;62.08;98046.81;5107659;28;20204;-64
2023/05/05 06:19:35;;;;;;;7.95;7.07;;;16.60;99.90;;;18.98;61.33;98028.09;5114372;28;20234;-63
2023/05/05 06:22:09;;;;;;;7.55;6.93;;;16.90;99.90;;;19.19;58.87;98031.22;5111920;28;20208;-62
2023/05/05 06:24:41;;;;;;;7.72;6.65;;;17.20;99.90;;;19.58;56.97;98033.94;5115107;28;20217;-64
2023/05/05 06:27:16;;;;;;;6.85;6.35;;;17.60;99.90;;;20.03;55.77;98024.66;5109742;28;20690;-65
2023/05/05 06:29:49;;;;;;;7.50;6.82;;;17.90;99.90;;;20.68;54.28;98027.75;5113744;28;20224;-64
2023/05/05 06:32:22;;;;;;;7.68;6.93;;;18.40;99.90;;;21.09;53.15;98029.41;5107741;28;20211;-63
2023/05/05 06:34:55;;;;;;;7.55;6.65;;;18.90;99.90;;;21.45;51.69;98039.59;5111878;28;20207;-64
2023/05/05 06:37:28;;;;;;;7.03;6.43;;;19.10;99.90;;;21.84;50.64;98043.72;5108247;28;20235;-63
2023/05/05 06:40:01;;;;;;;7.85;7.15;;;19.40;99.90;;;21.90;50.30;98049.00;5107615;28;20225;-65
2023/05/05 06:42:35;;;;;;;8.32;7.28;;;19.50;99.90;;;22.19;49.39;98045.97;5108730;28;20209;-64
2023/05/05 06:45:09;;;;;;;7.20;6.47;;;19.80;99.90;;;22.36;48.91;98046.22;5117010;28;20304;-64
2023/05/05 06:47:43;;;;;;;7.63;6.93;;;19.90;99.90;;;22.19;49.38;98040.78;5112649;28;20232;-63
2023/05/05 06:50:16;;;;;;;6.70;5.97;;;19.90;99.90;;;22.34;49.77;98040.09;5109604;28;20627;-64
2023/05/05 06:52:49;;;;;;;7.13;6.18;;;20.10;99.90;;;22.47;49.60;98042.91;5108645;28;20229;-64
2023/05/05 06:55:23;;;;;;;7.47;5.82;;;20.20;99.90;;;22.40;49.82;98038.44;5110273;28;20208;-63
2023/05/05 06:57:57;;;;;;;6.72;5.93;;;20.40;99.90;;;22.83;48.86;98036.34;5110452;28;20201;-64
2023/05/05 07:00:30;;;;;;;5.97;5.47;;;20.80;99.90;;;22.91;48.18;98032.09;5107948;29;20498;-63
2023/05/05 07:03:03;;;;;;;5.90;5.40;;;21.10;99.30;;;23.37;48.00;98035.22;5110568;28;20200;-64
2023/05/05 07:05:37;;;;;;;6.10;5.70;;;21.30;99.50;;;23.90;47.03;98040.91;5105719;28;20202;-64
2023/05/05 07:08:10;;;;;;;6.40;5.88;;;21.50;99.10;;;24.12;46.62;98037.53;5110166;29;20305;-64
2023/05/05 07:10:43;;;;;;;5.90;5.40;;;21.70;98.70;;;24.36;45.87;98034.22;5114273;28;20687;-64
2023/05/05 07:13:17;;;;;;;5.72;5.32;;;22.10;98.40;;;24.37;45.68;98033.34;5111572;28;20205;-63
2023/05/05 07:15:50;;;;;;;5.50;5.05;;;22.30;98.10;;;24.46;45.89;98036.03;5113312;28;20617;-63
2023/05/05 07:18:23;;;;;;;5.30;4.70;;;22.30;98.10;;;24.51;45.32;98043.91;5107912;28;20232;-63
2023/05/05 07:20:56;;;;;;;5.13;4.70;;;22.30;97.40;;;24.47;45.78;98042.16;5108075;28;20232;-64
2023/05/05 07:23:29;;;;;;;5.32;4.97;;;22.40;97.50;;;24.68;45.93;98034.38;5111465;29;20579;-63
2023/05/05 07:26:02;;;;;;;5.40;4.85;;;22.40;97.70;;;25.02;45.34;98031.88;5104648;29;20208;-64
2023/05/05 07:28:37;;;;;;;5.18;4.68;;;22.80;97.30;;;25.49;44.55;98036.31;5107843;28;20229;-63
2023/05/05 07:31:10;;;;;;;5.03;4.38;;;23.20;97.10;;;25.45;44.91;98039.81;5107094;28;20483;-64
2023/05/05 07:33:43;;;;;;;4.60;4.30;;;23.20;97.10;;;24.90;45.69;98039.69;5111556;28;20209;-63
2023/05/05 07:36:17;;;;;;;4.60;4.22;;;22.70;97.70;;;24.32;47.46;98039.41;5112310;29;20208;-63
2023/05/05 07:38:50;;;;;;;3.85;3.60;;;22.30;98.40;;;24.18;47.66;98042.84;5111059;28;20224;-63
2023/05/05 07:41:23;;;;;;;4.78;4.22;;;22.00;99.10;;;23.75;49.25;98049.47;5111154;28;20319;-64
2023/05/05 07:43:58;;;;;;;4.13;3.70;;;21.80;99.50;;;23.44;50.03;98040.50;5110728;28;20216;-63
2023/05/05 07:46:31;;;;;;;4.03;3.63;;;21.70;99.90;;;23.20;51.48;98052.44;5114044;28;20208;-64
2023/05/05 07:49:05;;;;;;;4.35;4.05;;;21.50;99.90;;;22.98;52.12;98045.25;5111763;28;20225;-64
2023/05/05 07:51:38;;;;;;;3.78;3.47;;;21.40;99.90;;;22.98;51.35;98045.25;5115646;28;20205;-64
2023/05/05 07:54:11;;;;;;;3.85;3.47;;;21.20;99.90;;;22.86;51.36;98043.34;5118595;28;20223;-63
2023/05/05 07:56:44;;;;;;;4.03;3.63;;;21.10;99.90;;;22.65;52.54;98051.78;5107963;28;20235;-62
2023/05/05 07:59:19;;;;;;;3.92;3.63;;;21.00;99.90;;;22.63;53.06;98054.38;5113459;28;20225;-64
2023/05/05 08:01:52;;;;;;;3.67;3.38;;;21.10;99.90;;;23.00;51.80;98047.00;5108213;29;20227;-64
2023/05/05 08:04:26;;;;;;;3.97;3.47;;;21.40;99.90;;;23.19;51.33;98045.47;5113613;28;20234;-66
2023/05/05 08:06:59;;;;;;;4.10;3.67;;;21.70;99.90;;;23.36;51.11;98043.91;5113726;29;20202;-63
2023/05/05 08:09:32;;;;;;;4.95;3.83;;;21.90;99.90;;;23.69;50.74;98028.50;5112462;29;20267;-64
2023/05/05 08:12:06;;;;;;;3.88;3.58;;;22.40;99.40;;;23.88;49.34;98037.41;5111901;28;20592;-63
2023/05/05 08:14:41;;;;;;;3.60;3.40;;;22.50;98.60;;;23.95;49.58;98032.25;5111467;28;20205;-63
2023/05/05 08:17:14;;;;;;;4.97;3.83;;;22.60;98.70;;;24.13;49.31;98031.47;5115228;28;20295;-64
2023/05/05 08:19:51;;;;;;;3.83;3.45;;;22.70;98.70;;;24.35;49.18;98034.19;5110139;28;20707;-64
2023/05/05 08:22:25;;;;;;;4.30;4.00;;;23.00;98.60;;;24.69;47.46;98035.25;5110637;28;20243;-64
2023/05/05 08:24:58;;;;;;;4.45;4.05;;;23.30;97.60;;;24.82;47.58;98021.34;5112225;28;20201;-63
2023/05/05 08:27:34;;;;;;;4.07;3.78;;;23.30;97.60;;;24.83;46.93;98027.47;5110534;28;20209;-64
2023/05/05 08:30:10;;;;;;;4.22;3.55;;;23.40;97.10;;;24.91;47.60;98036.19;5110443;28;20224;-65
2023/05/05 08:32:43;;;;;;;3.97;3.67;;;23.30;97.70;;;24.95;46.82;98038.84;5105683;28;20684;-64
2023/05/05 08:35:16;;;;;;;4.03;3.72;;;23.60;96.90;;;24.83;48.11;98041.41;5110845;28;20208;-63
2023/05/05 08:37:51;;;;;;;4.28;3.88;;;23.50;97.40;;;24.76;48.67;98046.63;5110088;28;20200;-64
2023/05/05 08:40:32;;;;;;;4.43;4.03;;;23.40;97.80;;;24.73;47.27;98048.34;5111797;29;20215;-65
2023/05/05 08:43:06;;;;;;;4.50;3.95;;;23.30;97.30;;;24.62;48.87;98044.81;5110575;28;20259;-63
2023/05/05 08:45:41;;;;;;;4.72;4.32;;;23.20;98.10;;;24.45;48.32;98049.97;5115600;28;20223;-63
2023/05/05 08:48:19;;;;;;;4.80;4.00;;;23.00;97.50;;;24.49;48.94;98058.69;5108441;28;20192;-64
2023/05/05 08:50:58;;;;;;;5.85;4.10;;;23.00;98.20;;;24.69;47.73;98051.81;5106878;29;20197;-63
2023/05/05 08:53:48;;;;;;;4.13;3.83;;;23.10;97.70;;;24.34;48.20;98058.59;5113336;28;20748;-65
2023/05/05 08:56:22;;;;;;;4.72;4.28;;;22.80;98.00;;;24.30;48.61;98057.69;5107956;28;20203;-63
2023/05/05 08:58:56;;;;;;;4.50;4.10;;;22.80;97.90;;;24.17;48.92;98056.75;5108034;28;20232;-63
2023/05/05 09:01:32;;;;;;;5.55;4.10;;;22.80;98.10;;;24.11;49.98;98061.94;5107798;28;20231;-64
2023/05/05 09:04:08;;;;;;;3.85;3.55;;;22.60;98.80;;;23.82;50.66;98059.13;5108263;28;20668;-63
2023/05/05 09:06:41;;;;;;;4.57;3.78;;;22.40;99.20;;;23.72;50.79;98058.19;5112118;28;20658;-63
2023/05/05 09:09:14;;;;;;;4.80;4.40;;;22.20;99.50;;;23.63;50.91;98068.50;5112402;28;20231;-63
2023/05/05 09:11:48;;;;;;;5.13;4.05;;;22.10;99.30;;;23.27;51.87;98069.03;5113271;28;20204;-63
2023/05/05 09:14:21;;;;;;;4.50;3.90;;;21.80;99.90;;;23.14;52.84;98071.50;5109889;28;20196;-64
2023/05/05 09:16:55;;;;;;;4.18;3.78;;;21.70;99.90;;;23.13;53.41;98072.38;5112982;28;20614;-63
2023/05/05 09:19:28;;;;;;;4.25;3.85;;;21.50;99.90;;;22.93;53.90;98066.91;5110065;29;20256;-63
2023/05/05 09:22:01;;;;;;;4.10;3.75;;;21.40;99.90;;;22.86;55.13;98078.13;5115276;28;20247;-63
2023/05/05 09:24:34;;;;;;;5.65;4.05;;;21.40;99.90;;;22.60;55.57;98077.78;5111831;28;20565;-64
2023/05/05 09:27:22;;;;;;;4.38;3.42;;;21.30;99.90;;;22.42;55.03;98081.03;5110698;28;20220;-64
2023/05/05 09:29:55;;;;;;;5.75;4.32;;;21.00;99.90;;;22.34;55.68;98077.44;5110793;28;20717;-64
2023/05/05 09:32:29;;;;;;;4.40;4.00;;;20.90;99.90;;;22.35;55.71;98079.22;5110670;28;20614;-63
2023/05/05 09:35:02;;;;;;;5.00;3.90;;;20.80;99.90;;;22.37;55.96;98077.47;5107839;28;20740;-63
2023/05/05 09:37:36;;;;;;;4.10;3.70;;;20.90;99.90;;;22.01;61.09;98078.69;5109295;29;20331;-64
2023/05/05 09:40:12;;;;;;;4.35;4.03;;;20.60;99.90;;;21.71;63.49;98072.97;5109225;28;20724;-64
2023/05/05 09:42:46;;;;;;;4.00;3.70;;;20.30;99.90;;;21.57;65.57;98073.63;5110203;28;20228;-64
2023/05/05 09:45:26;;;;;;;4.07;3.63;;;20.00;99.90;;;21.20;67.75;98074.66;5110837;29;20657;-63
2023/05/05 09:48:01;;;;;;;5.22;3.72;;;19.80;99.90;;;20.90;69.50;98067.16;5106965;28;20295;-63
2023/05/05 09:50:43;;;;;;;4.18;3.88;;;19.60;99.90;;;20.67;72.40;98077.97;5111769;28;20205;-63
2023/05/05 09:53:16;;;;;;;6.55;3.72;;;19.40;99.90;;;20.38;73.76;98068.66;5108829;28;20209;-64
2023/05/05 09:55:54;;;;;;;5.90;4.30;;;19.20;99.90;;;20.09;76.91;98068.91;5108709;28;20569;-63
2023/05/05 09:58:29;;;;;;;4.40;4.00;;;19.10;99.90;;;19.93;80.92;98059.88;5108111;28;20239;-63
2023/05/05 10:01:02;;;;;;;4.60;4.30;;;19.00;99.90;;;19.69;80.99;98060.19;5107417;28;20258;-65
2023/05/05 10:03:51;;;;;;;4.85;4.45;;;18.80;99.90;;;19.45;81.84;98043.97;5108338;29;20224;-64
2023/05/05 10:06:40;;;;;;;5.22;4.45;;;18.70;99.90;;;19.27;84.14;98023.66;5110385;28;20208;-64
2023/05/05 10:09:14;;;;;;;5.05;4.63;;;18.50;99.90;;;19.12;85.14;98030.19;5107383;28;20309;-63
2023/05/05 10:11:48;;;;;;;4.55;4.15;;;18.40;99.90;;;18.95;85.87;98033.19;5110011;28;20705;-63
2023/05/05 10:14:21;;;;;;;5.90;5.40;;;18.20;99.90;;;18.78;88.17;98028.41;5114370;28;20208;-63
2023/05/05 10:16:55;;;;;;;5.85;5.28;;;18.10;99.90;;;18.85;88.65;98019.97;5109259;28;20209;-62
2023/05/05 10:19:34;;;;;;;6.25;5.75;;;18.10;99.90;;;18.67;88.70;98022.91;5111706;28;20351;-62
2023/05/05 10:22:10;;;;;;;7.40;5.68;;;18.00;99.90;;;18.51;91.54;98028.47;5110525;28;20566;-63
2023/05/05 10:24:51;;;;;;;5.80;5.30;;;17.90;99.90;;;18.61;92.83;98052.94;5109227;28;20205;-62
2023/05/05 10:27:28;;;;;;;7.03;5.10;;;17.90;99.90;;;18.73;94.54;98045.50;5114851;28;20211;-63
2023/05/05 10:30:05;;;;;;;6.57;6.00;;;18.00;99.90;;;18.86;96.93;98039.00;5113906;28;20224;-63
2023/05/05 10:32:44;;;;;;;5.70;5.20;;;18.10;99.90;;;19.00;96.23;98036.75;5112447;28;20695;-62
2023/05/05 10:35:41;;;;;;;6.47;5.35;;;18.20;99.90;;;19.15;96.03;98044.94;5112592;28;20213;-63
2023/05/05 10:38:16;;;;;;;6.55;6.00;;;18.30;99.90;;;19.33;94.99;98035.03;5115119;28;20219;-63
2023/05/05 10:40:50;;;;;;;6.70;6.20;;;18.50;99.90;;;19.42;94.83;98037.00;5115026;28;20201;-63
2023/05/05 10:43:24;;;;;;;6.53;5.93;;;18.60;99.90;;;19.53;92.74;98032.06;5114220;28;20236;-63
2023/05/05 10:45:57;;;;;;;6.82;6.10;;;18.70;99.90;;;19.66;90.13;98039.34;5116941;28;20199;-63
2023/05/05 10:48:37;;;;;;;5.85;5.25;;;18.80;99.90;;;19.81;89.28;98028.47;5117991;28;20221;-62
2023/05/05 10:51:27;;;;;;;5.95;5.38;;;18.90;99.90;;;20.05;90.61;98033.31;5116287;28;20196;-63
2023/05/05 10:54:21;;;;;;;5.00;4.60;;;19.30;99.90;;;20.47;86.60;98027.31;5118025;28;20196;-63